Airfield :







YOU CAN JOIN US ON...

 
LOGIN :

Register | Disclaimer

   EN    FR    IT 

 









Legend :    VFR   Marginal VFR   IFR   Intensive IFR   Very Intensive IFR
Visi :
Ceiling :
>= 8 km
>= 3000ft
5 to 8 km
1000 to 3000 ft
1500m to 5 km
500 to 1000 ft
800 to 1500m
200 to 500 ft
< 800m
< 200 ft
Symbols :   Thunderstorms  Fog  Heavy snow  Heavy precipitations  Wind > 20 kt







- Airport Elevation : 71 ft
- IATA code : YBC


CYBC - Baie Comeau

CURRENT METAR :
  • 160800Z AUTO 25008KT 9SM -RA OVC004 11/10 A2963 RMK SLP037

EXPIRED METARs :
  • 160714Z AUTO 25007KT 9SM -RA OVC004 11/10 A2962 RMK SLP034
  • 160654Z AUTO 23006KT 6SM RA BR OVC006 11/10 A2963 RMK SLP035
  • 160606Z AUTO 17003KT 5SM -RA BR OVC002 10/09 A2963 RMK SLP036
  • 160553Z AUTO 14005KT 6SM -RA BR OVC002 10/10 A2962 RMK SLP034

TAF TAF CYBC
Valid from the 16 at 08:00 until the 16 at 20:00 UTC


160738Z 1608/1620 23006KT 2SM -RA BR OVC005
TEMPO 1608/1610 6SM -RA BR SCT005 OVC015
FM161000 25012KT P6SM FEW005 BKN030
TEMPO 1610/1612 5SM -RA BR BKN020 OVC030
FM161200 23012G22KT P6SM BKN030
TEMPO 1612/1614 BKN020 RMK FCST BASED ON AUTO OBS. NXT FCST BY 161400Z
CZUL FIR / North America



MET'MAP, your aeronautical weather chart ! - Copyright ORBIFLY December 2007 - Disclaimer

ORBIFLY MET'MAP TEAM :

Programming & Development : Alexandra Zaïnal
Concept & Development : Baudouin d'Aumeries
Co-Development & Prog : Marc-Olivier Méhu
Technical & hardware support : Manuel Goepfert

Contact : metmap@orbifly.com




SOURCES & CREDITS :

   NOAA